Time;durP1;ratioP1;P1;durP2;ratioP2;P2;SDS_P1;SDS_P2;PMS_P1;PMS_P2;Temp;Humidity;BMP_temperature;BMP_pressure;BME280_temperature;BME280_humidity;BME280_pressure;Samples;Min_cycle;Max_cycle;Signal;HPM_P1;HPM_P2
2024/03/15 00:00:43;;;;;;;7.28;3.70;;;;;;;;;;2047117;28;20033;-50
2024/03/15 00:01:45;;;;;;;11.10;4.43;;;;;;;;;;2041817;29;20023;-51
2024/03/15 00:02:46;;;;;;;8.52;4.28;;;;;;;;;;2048087;28;20486;-51
2024/03/15 00:03:47;;;;;;;10.70;4.80;;;;;;;;;;2048149;28;20023;-52
2024/03/15 00:04:49;;;;;;;7.88;3.90;;;;;;;;;;2047236;29;20034;-52
2024/03/15 00:05:50;;;;;;;9.13;4.55;;;;;;;;;;2048231;28;20031;-48
2024/03/15 00:06:51;;;;;;;7.70;3.80;;;;;;;;;;2042311;28;20136;-51
2024/03/15 00:07:53;;;;;;;6.57;3.45;;;;;;;;;;2043738;28;20099;-51
2024/03/15 00:08:55;;;;;;;10.32;3.85;;;;;;;;;;2045867;28;20047;-50
2024/03/15 00:09:57;;;;;;;8.00;3.75;;;;;;;;;;2045196;29;20019;-58
2024/03/15 00:10:59;;;;;;;9.07;3.75;;;;;;;;;;2046889;28;20050;-55
2024/03/15 00:12:00;;;;;;;5.32;3.70;;;;;;;;;;2043493;29;20087;-54
2024/03/15 00:13:03;;;;;;;7.65;3.92;;;;;;;;;;2047773;29;20371;-56
2024/03/15 00:14:04;;;;;;;9.00;3.78;;;;;;;;;;2047057;29;20015;-56
2024/03/15 00:15:06;;;;;;;10.48;3.63;;;;;;;;;;2044479;29;20086;-56
2024/03/15 00:16:10;;;;;;;9.38;4.25;;;;;;;;;;2046568;29;21007;-55
2024/03/15 00:17:13;;;;;;;9.05;2.90;;;;;;;;;;2044019;28;20043;-45
2024/03/15 00:18:17;;;;;;;9.02;2.83;;;;;;;;;;2045556;29;20573;-56
2024/03/15 00:19:18;;;;;;;9.23;3.47;;;;;;;;;;2043456;28;20018;-55
2024/03/15 00:20:20;;;;;;;7.88;3.72;;;;;;;;;;2046058;28;20028;-57
2024/03/15 00:21:23;;;;;;;6.80;3.47;;;;;;;;;;2047604;28;20042;-55
2024/03/15 00:22:25;;;;;;;10.73;4.20;;;;;;;;;;2046325;28;20023;-55
2024/03/15 00:23:26;;;;;;;8.63;3.55;;;;;;;;;;2044559;29;20019;-56
2024/03/15 00:24:27;;;;;;;7.85;3.42;;;;;;;;;;2046250;28;20079;-56
2024/03/15 00:25:29;;;;;;;6.72;3.45;;;;;;;;;;2048417;29;20035;-56
2024/03/15 00:26:32;;;;;;;12.10;3.88;;;;;;;;;;2045493;29;20027;-55
2024/03/15 00:27:33;;;;;;;8.15;3.92;;;;;;;;;;2044440;29;20023;-56
2024/03/15 00:28:35;;;;;;;7.88;3.80;;;;;;;;;;2042105;29;20054;-56
2024/03/15 00:29:36;;;;;;;6.53;4.00;;;;;;;;;;2046879;28;20434;-56
2024/03/15 00:30:41;;;;;;;9.00;3.78;;;;;;;;;;2053540;28;20512;-56
2024/03/15 00:31:42;;;;;;;9.48;4.57;;;;;;;;;;2049598;28;20050;-47
2024/03/15 00:32:43;;;;;;;8.52;3.78;;;;;;;;;;2047448;28;20034;-55
2024/03/15 00:33:45;;;;;;;9.93;3.95;;;;;;;;;;2045445;28;20031;-55
2024/03/15 00:34:46;;;;;;;7.43;3.92;;;;;;;;;;2048816;28;20030;-55
2024/03/15 00:35:49;;;;;;;8.98;4.30;;;;;;;;;;2046120;29;20030;-52
2024/03/15 00:36:54;;;;;;;9.07;4.15;;;;;;;;;;2045583;28;20399;-54
2024/03/15 00:37:55;;;;;;;7.10;4.00;;;;;;;;;;2046793;28;20082;-52
2024/03/15 00:38:56;;;;;;;10.40;3.90;;;;;;;;;;2046444;29;20026;-54
2024/03/15 00:39:58;;;;;;;10.98;4.93;;;;;;;;;;2047951;29;20091;-57
2024/03/15 00:41:00;;;;;;;10.57;4.55;;;;;;;;;;2047835;29;20062;-57
2024/03/15 00:42:02;;;;;;;9.70;4.50;;;;;;;;;;2047348;29;20024;-52
2024/03/15 00:43:03;;;;;;;11.95;5.55;;;;;;;;;;2043662;28;20468;-51
2024/03/15 00:44:05;;;;;;;9.07;5.22;;;;;;;;;;2046823;28;20027;-55
2024/03/15 00:45:06;;;;;;;11.82;5.00;;;;;;;;;;2048050;29;20027;-56
2024/03/15 00:46:08;;;;;;;8.55;4.65;;;;;;;;;;2046639;28;20524;-53
2024/03/15 00:47:10;;;;;;;9.30;4.65;;;;;;;;;;2046895;28;20503;-56
2024/03/15 00:48:11;;;;;;;9.35;4.90;;;;;;;;;;2043931;29;20034;-56
2024/03/15 00:49:12;;;;;;;11.35;4.82;;;;;;;;;;2047716;29;20065;-54
2024/03/15 00:50:14;;;;;;;9.63;4.95;;;;;;;;;;2045342;28;20512;-53
2024/03/15 00:51:15;;;;;;;8.43;4.25;;;;;;;;;;2048794;28;20027;-55
2024/03/15 00:52:17;;;;;;;7.30;3.65;;;;;;;;;;2046597;28;20494;-54
2024/03/15 00:53:19;;;;;;;8.65;4.05;;;;;;;;;;2047326;28;20074;-54
2024/03/15 00:54:22;;;;;;;8.43;4.07;;;;;;;;;;2047575;28;20025;-56
2024/03/15 00:55:27;;;;;;;9.93;4.10;;;;;;;;;;2050139;28;20011;-57
2024/03/15 00:56:29;;;;;;;10.25;4.72;;;;;;;;;;2049766;28;20014;-57
2024/03/15 00:57:30;;;;;;;10.18;4.18;;;;;;;;;;2045288;28;20502;-54
2024/03/15 00:58:31;;;;;;;8.68;4.15;;;;;;;;;;2044524;29;20087;-56
2024/03/15 00:59:34;;;;;;;8.80;4.05;;;;;;;;;;2048579;29;20103;-56
2024/03/15 01:00:35;;;;;;;11.35;4.85;;;;;;;;;;2045291;29;20073;-56
2024/03/15 01:01:37;;;;;;;11.68;4.35;;;;;;;;;;2044309;29;20059;-55
2024/03/15 01:02:40;;;;;;;8.77;4.03;;;;;;;;;;2047630;28;20031;-55
2024/03/15 01:03:41;;;;;;;9.02;4.97;;;;;;;;;;2050178;28;20019;-53
2024/03/15 01:04:42;;;;;;;9.82;4.53;;;;;;;;;;2048980;28;20059;-57
2024/03/15 01:05:44;;;;;;;15.27;4.38;;;;;;;;;;2045522;29;20110;-55
2024/03/15 01:06:45;;;;;;;9.43;4.55;;;;;;;;;;2041699;28;20065;-48
2024/03/15 01:07:47;;;;;;;9.50;4.15;;;;;;;;;;2048054;28;20027;-48
2024/03/15 01:08:51;;;;;;;9.85;4.22;;;;;;;;;;2048104;28;20019;-46
2024/03/15 01:09:52;;;;;;;8.02;4.18;;;;;;;;;;2044251;29;20031;-47
2024/03/15 01:10:53;;;;;;;10.43;4.47;;;;;;;;;;2049054;29;20042;-48
2024/03/15 01:11:55;;;;;;;8.32;4.47;;;;;;;;;;2048463;28;20031;-49
2024/03/15 01:12:58;;;;;;;11.40;4.53;;;;;;;;;;2040770;29;20075;-45
2024/03/15 01:13:59;;;;;;;10.57;4.47;;;;;;;;;;2042662;28;20019;-46
2024/03/15 01:15:00;;;;;;;9.45;4.72;;;;;;;;;;2048702;28;20092;-46
2024/03/15 01:16:02;;;;;;;8.20;4.35;;;;;;;;;;2047366;28;20027;-46
2024/03/15 01:17:03;;;;;;;10.35;4.70;;;;;;;;;;2048279;28;20391;-46
2024/03/15 01:18:05;;;;;;;11.07;5.05;;;;;;;;;;2040591;29;20020;-46
2024/03/15 01:19:06;;;;;;;9.48;4.30;;;;;;;;;;2032611;29;20032;-45
2024/03/15 01:20:08;;;;;;;6.63;4.18;;;;;;;;;;2043260;28;20031;-47
2024/03/15 01:21:10;;;;;;;7.72;4.65;;;;;;;;;;2049152;28;20027;-46
2024/03/15 01:22:11;;;;;;;10.23;4.38;;;;;;;;;;2048501;28;20078;-47
2024/03/15 01:23:13;;;;;;;9.82;4.60;;;;;;;;;;2043114;28;20059;-46
2024/03/15 01:24:14;;;;;;;10.00;4.68;;;;;;;;;;2048652;28;20410;-48
2024/03/15 01:25:15;;;;;;;13.00;4.60;;;;;;;;;;2048544;28;20110;-46
2024/03/15 01:26:17;;;;;;;10.35;5.30;;;;;;;;;;2045543;28;20023;-47
2024/03/15 01:27:18;;;;;;;8.60;4.78;;;;;;;;;;2054868;28;20499;-46
2024/03/15 01:28:19;;;;;;;7.30;4.43;;;;;;;;;;2043986;29;20027;-46
2024/03/15 01:29:22;;;;;;;11.32;4.30;;;;;;;;;;2047479;28;20027;-49
2024/03/15 01:30:24;;;;;;;9.45;4.63;;;;;;;;;;2045103;28;20023;-54
2024/03/15 01:31:26;;;;;;;11.07;4.95;;;;;;;;;;2041952;29;20117;-59
2024/03/15 01:32:27;;;;;;;8.13;4.80;;;;;;;;;;2043213;29;20024;-54
2024/03/15 01:33:29;;;;;;;10.13;5.03;;;;;;;;;;2045922;29;20486;-56
2024/03/15 01:34:30;;;;;;;9.18;5.00;;;;;;;;;;2048616;28;20023;-56
2024/03/15 01:35:35;;;;;;;10.13;5.40;;;;;;;;;;2052708;28;20102;-56
2024/03/15 01:36:37;;;;;;;9.98;5.10;;;;;;;;;;2052882;28;20042;-53
2024/03/15 01:37:40;;;;;;;11.38;5.18;;;;;;;;;;2045966;29;20071;-55
2024/03/15 01:38:42;;;;;;;6.13;4.35;;;;;;;;;;2043627;29;20118;-57
2024/03/15 01:39:44;;;;;;;10.45;4.80;;;;;;;;;;2049399;28;20023;-59
2024/03/15 01:40:45;;;;;;;8.05;5.10;;;;;;;;;;2050029;28;20019;-54
2024/03/15 01:41:47;;;;;;;10.05;5.05;;;;;;;;;;2043844;29;20437;-55
2024/03/15 01:42:48;;;;;;;9.00;4.65;;;;;;;;;;2046633;29;20031;-57
2024/03/15 01:43:49;;;;;;;8.35;4.68;;;;;;;;;;2045693;29;20042;-56
2024/03/15 01:44:55;;;;;;;9.48;4.60;;;;;;;;;;2043366;28;20023;-55
2024/03/15 01:45:57;;;;;;;10.73;5.03;;;;;;;;;;2044286;29;20110;-52
2024/03/15 01:46:59;;;;;;;9.48;5.05;;;;;;;;;;2044942;29;20028;-54
2024/03/15 01:48:03;;;;;;;12.15;5.20;;;;;;;;;;2045141;28;20031;-56
2024/03/15 01:49:06;;;;;;;10.65;5.68;;;;;;;;;;2049919;28;20015;-51
2024/03/15 01:50:07;;;;;;;10.40;5.03;;;;;;;;;;2055088;28;20105;-56
2024/03/15 01:51:09;;;;;;;9.55;5.05;;;;;;;;;;2043537;29;20496;-55
2024/03/15 01:52:10;;;;;;;9.35;5.20;;;;;;;;;;2043063;28;20565;-48
2024/03/15 01:53:11;;;;;;;10.07;5.65;;;;;;;;;;2046794;28;20031;-49
2024/03/15 01:54:13;;;;;;;11.05;5.25;;;;;;;;;;2041374;29;20086;-49
2024/03/15 01:55:14;;;;;;;10.45;6.18;;;;;;;;;;2042886;28;20019;-50
2024/03/15 01:56:16;;;;;;;8.98;5.45;;;;;;;;;;2047419;28;20494;-52
2024/03/15 01:57:20;;;;;;;10.80;5.70;;;;;;;;;;2045685;28;20086;-51
2024/03/15 01:58:24;;;;;;;10.85;5.75;;;;;;;;;;2047401;28;20086;-51
2024/03/15 01:59:25;;;;;;;10.55;5.22;;;;;;;;;;2046931;28;20023;-52
2024/03/15 02:00:26;;;;;;;10.15;4.85;;;;;;;;;;2045382;28;20022;-50
2024/03/15 02:01:28;;;;;;;9.52;4.93;;;;;;;;;;2042572;28;20127;-50
2024/03/15 02:02:32;;;;;;;15.98;5.88;;;;;;;;;;2044228;29;20035;-47
2024/03/15 02:03:34;;;;;;;10.65;5.53;;;;;;;;;;2043781;28;20382;-50
2024/03/15 02:04:36;;;;;;;12.73;5.72;;;;;;;;;;2047372;28;20030;-51
2024/03/15 02:05:37;;;;;;;13.00;5.20;;;;;;;;;;2047282;29;20071;-49
2024/03/15 02:06:38;;;;;;;11.18;5.28;;;;;;;;;;2047683;29;20090;-50
2024/03/15 02:07:39;;;;;;;10.50;5.53;;;;;;;;;;2047811;28;20115;-48
2024/03/15 02:08:41;;;;;;;11.52;6.30;;;;;;;;;;2044883;28;20418;-51
2024/03/15 02:09:42;;;;;;;11.85;6.00;;;;;;;;;;2042648;28;20348;-49
2024/03/15 02:10:44;;;;;;;11.50;6.03;;;;;;;;;;2043626;28;20111;-49
2024/03/15 02:11:46;;;;;;;10.00;5.57;;;;;;;;;;2040537;29;20059;-51
2024/03/15 02:12:49;;;;;;;14.50;6.07;;;;;;;;;;2048078;28;20023;-51
2024/03/15 02:13:52;;;;;;;13.18;5.90;;;;;;;;;;2043084;28;20035;-49
2024/03/15 02:14:53;;;;;;;11.60;5.65;;;;;;;;;;2044655;29;20375;-51
2024/03/15 02:15:54;;;;;;;9.32;5.28;;;;;;;;;;2047509;28;20114;-50
2024/03/15 02:16:57;;;;;;;15.63;7.15;;;;;;;;;;2046052;29;20023;-49
2024/03/15 02:17:58;;;;;;;13.70;5.70;;;;;;;;;;2043978;28;20455;-50
2024/03/15 02:19:00;;;;;;;14.00;6.20;;;;;;;;;;2048482;28;20019;-49
2024/03/15 02:20:01;;;;;;;13.23;6.05;;;;;;;;;;2050645;28;20410;-50
2024/03/15 02:21:03;;;;;;;12.38;6.22;;;;;;;;;;2045677;28;20020;-51
2024/03/15 02:22:04;;;;;;;13.10;6.53;;;;;;;;;;2043661;29;20034;-51
2024/03/15 02:23:06;;;;;;;11.40;6.63;;;;;;;;;;2044438;28;20130;-50
2024/03/15 02:24:08;;;;;;;9.63;5.63;;;;;;;;;;2044273;29;20078;-51
2024/03/15 02:25:09;;;;;;;12.65;5.90;;;;;;;;;;2043471;28;20023;-49
2024/03/15 02:26:11;;;;;;;11.02;5.90;;;;;;;;;;2047864;29;20034;-49
2024/03/15 02:27:15;;;;;;;13.95;7.00;;;;;;;;;;2043996;28;20031;-50
2024/03/15 02:28:16;;;;;;;12.50;6.20;;;;;;;;;;2042753;28;20031;-49
2024/03/15 02:29:19;;;;;;;10.27;5.90;;;;;;;;;;2048088;29;20118;-51
2024/03/15 02:30:21;;;;;;;13.50;6.82;;;;;;;;;;2043554;29;20028;-50
2024/03/15 02:31:23;;;;;;;13.63;6.32;;;;;;;;;;2049602;28;20031;-50
2024/03/15 02:32:24;;;;;;;9.68;6.03;;;;;;;;;;2052471;28;20035;-51
2024/03/15 02:33:25;;;;;;;10.38;6.35;;;;;;;;;;2046882;28;20561;-51
2024/03/15 02:34:27;;;;;;;12.55;6.55;;;;;;;;;;2039246;29;20028;-51
2024/03/15 02:35:30;;;;;;;11.70;6.43;;;;;;;;;;2044969;29;20363;-51
2024/03/15 02:36:32;;;;;;;9.82;6.32;;;;;;;;;;2047578;28;20039;-49
2024/03/15 02:37:33;;;;;;;12.35;6.05;;;;;;;;;;2048323;29;20483;-51
2024/03/15 02:38:35;;;;;;;10.48;5.72;;;;;;;;;;2046417;28;20057;-51
2024/03/15 02:39:36;;;;;;;11.13;6.15;;;;;;;;;;2044256;29;20103;-51
2024/03/15 02:40:37;;;;;;;12.77;6.72;;;;;;;;;;2045459;29;20066;-51
2024/03/15 02:41:39;;;;;;;12.23;6.18;;;;;;;;;;2045187;29;20031;-51
2024/03/15 02:42:42;;;;;;;9.80;6.03;;;;;;;;;;2047539;28;20484;-50
2024/03/15 02:43:46;;;;;;;12.80;6.63;;;;;;;;;;2046839;28;20166;-50
2024/03/15 02:44:48;;;;;;;12.88;7.18;;;;;;;;;;2047477;28;20050;-50
2024/03/15 02:45:49;;;;;;;11.18;5.65;;;;;;;;;;2047952;28;20074;-52
2024/03/15 02:46:51;;;;;;;8.63;6.15;;;;;;;;;;2046206;29;20503;-50
2024/03/15 02:47:52;;;;;;;11.27;6.85;;;;;;;;;;2044606;28;20427;-47
2024/03/15 02:48:53;;;;;;;10.25;6.50;;;;;;;;;;2049270;28;20050;-49
2024/03/15 02:49:56;;;;;;;12.75;6.68;;;;;;;;;;2046980;28;20019;-52
2024/03/15 02:50:57;;;;;;;10.80;5.97;;;;;;;;;;2047325;28;20041;-50
2024/03/15 02:51:58;;;;;;;10.50;6.60;;;;;;;;;;2053862;28;20038;-48
2024/03/15 02:53:00;;;;;;;11.85;6.70;;;;;;;;;;2053994;28;20027;-51
2024/03/15 02:54:01;;;;;;;11.05;6.03;;;;;;;;;;2048676;29;20034;-52
2024/03/15 02:55:04;;;;;;;9.93;6.32;;;;;;;;;;2048286;28;20028;-47
2024/03/15 02:56:05;;;;;;;12.88;6.75;;;;;;;;;;2044701;29;20538;-50
2024/03/15 02:57:08;;;;;;;10.98;6.57;;;;;;;;;;2049000;29;20039;-50
2024/03/15 02:58:11;;;;;;;10.57;6.45;;;;;;;;;;2047005;28;20033;-51
2024/03/15 02:59:12;;;;;;;9.88;6.03;;;;;;;;;;2048340;28;20042;-51
2024/03/15 03:00:14;;;;;;;15.27;6.30;;;;;;;;;;2047363;28;20111;-49
2024/03/15 03:01:15;;;;;;;9.43;4.70;;;;;;;;;;2045361;28;20150;-49
2024/03/15 03:02:17;;;;;;;12.75;5.05;;;;;;;;;;2046260;28;20019;-50
2024/03/15 03:03:19;;;;;;;10.15;4.60;;;;;;;;;;2052237;28;20035;-49
2024/03/15 03:04:20;;;;;;;9.82;4.78;;;;;;;;;;2051125;28;20048;-50
2024/03/15 03:05:21;;;;;;;10.43;4.97;;;;;;;;;;2045075;28;20056;-51
2024/03/15 03:06:23;;;;;;;9.35;4.50;;;;;;;;;;2045749;28;20109;-50
2024/03/15 03:07:24;;;;;;;10.73;4.47;;;;;;;;;;2040844;29;20042;-49
2024/03/15 03:08:26;;;;;;;10.38;4.32;;;;;;;;;;2040681;29;20024;-49
2024/03/15 03:09:27;;;;;;;9.25;4.50;;;;;;;;;;2046895;29;20027;-50
2024/03/15 03:10:28;;;;;;;7.53;4.20;;;;;;;;;;2039662;29;20111;-49
2024/03/15 03:11:30;;;;;;;7.15;4.63;;;;;;;;;;2043211;28;20234;-50
2024/03/15 03:12:32;;;;;;;9.90;4.97;;;;;;;;;;2045633;28;20419;-49
2024/03/15 03:13:33;;;;;;;7.15;4.10;;;;;;;;;;2047038;28;20502;-50
2024/03/15 03:14:35;;;;;;;7.60;4.30;;;;;;;;;;2047207;29;20050;-50
2024/03/15 03:15:36;;;;;;;7.95;4.32;;;;;;;;;;2045975;29;20066;-51
2024/03/15 03:16:38;;;;;;;9.32;4.07;;;;;;;;;;2043892;29;20040;-51
2024/03/15 03:17:40;;;;;;;7.63;3.85;;;;;;;;;;2050418;28;20023;-50
2024/03/15 03:18:42;;;;;;;6.90;3.70;;;;;;;;;;2048165;28;20568;-51
2024/03/15 03:19:44;;;;;;;8.48;3.83;;;;;;;;;;2044801;28;20052;-51
2024/03/15 03:20:45;;;;;;;6.78;4.00;;;;;;;;;;2056539;28;20093;-48
2024/03/15 03:21:47;;;;;;;6.50;3.55;;;;;;;;;;2046685;28;20043;-50
2024/03/15 03:22:48;;;;;;;8.25;3.90;;;;;;;;;;2049299;28;20031;-50
2024/03/15 03:23:49;;;;;;;13.75;4.20;;;;;;;;;;2048771;28;20110;-46
2024/03/15 03:24:51;;;;;;;6.80;4.68;;;;;;;;;;2046179;28;20030;-47
2024/03/15 03:25:53;;;;;;;7.28;4.07;;;;;;;;;;2049738;28;20034;-47
2024/03/15 03:26:55;;;;;;;9.13;4.30;;;;;;;;;;2048792;28;20732;-49
2024/03/15 03:27:56;;;;;;;6.28;4.00;;;;;;;;;;2049334;28;20410;-47
2024/03/15 03:28:57;;;;;;;9.07;4.25;;;;;;;;;;2049685;29;20035;-47
2024/03/15 03:29:59;;;;;;;11.57;4.35;;;;;;;;;;2049569;28;20042;-48
2024/03/15 03:31:00;;;;;;;11.23;4.30;;;;;;;;;;2047604;28;20446;-46
2024/03/15 03:32:02;;;;;;;8.30;4.03;;;;;;;;;;2047164;28;20051;-48
2024/03/15 03:33:03;;;;;;;7.82;3.67;;;;;;;;;;2046582;28;20497;-46
2024/03/15 03:34:04;;;;;;;6.15;3.75;;;;;;;;;;2049649;28;20027;-46
2024/03/15 03:35:06;;;;;;;7.85;3.58;;;;;;;;;;2049480;28;20070;-46
2024/03/15 03:36:07;;;;;;;7.90;4.35;;;;;;;;;;2049710;28;20024;-45
2024/03/15 03:37:09;;;;;;;7.95;4.50;;;;;;;;;;2043960;28;20483;-46
2024/03/15 03:38:10;;;;;;;6.63;4.50;;;;;;;;;;2048851;29;20491;-46
2024/03/15 03:39:13;;;;;;;7.10;4.07;;;;;;;;;;2048903;28;20062;-45
2024/03/15 03:40:14;;;;;;;7.93;3.25;;;;;;;;;;2048817;28;20039;-45
2024/03/15 03:41:17;;;;;;;6.72;3.95;;;;;;;;;;2051615;28;20355;-48
2024/03/15 03:42:20;;;;;;;8.07;3.63;;;;;;;;;;2052445;28;20126;-46
2024/03/15 03:43:21;;;;;;;7.13;3.78;;;;;;;;;;2045665;28;20016;-46
2024/03/15 03:44:22;;;;;;;7.65;3.85;;;;;;;;;;2046520;28;20458;-45
2024/03/15 03:45:26;;;;;;;8.35;3.65;;;;;;;;;;2049629;29;20027;-46
2024/03/15 03:46:28;;;;;;;8.02;4.07;;;;;;;;;;2048163;28;20509;-47
2024/03/15 03:47:29;;;;;;;6.97;3.95;;;;;;;;;;2047960;28;20050;-52
2024/03/15 03:48:31;;;;;;;6.07;3.78;;;;;;;;;;2044468;29;20032;-50
2024/03/15 03:49:32;;;;;;;6.78;3.67;;;;;;;;;;2044132;29;20024;-46
2024/03/15 03:50:34;;;;;;;8.15;3.70;;;;;;;;;;2048342;28;20043;-46
2024/03/15 03:51:35;;;;;;;7.25;4.07;;;;;;;;;;2048706;28;20540;-46
2024/03/15 03:52:38;;;;;;;6.35;3.38;;;;;;;;;;2048361;28;20442;-47
2024/03/15 03:53:39;;;;;;;8.00;4.22;;;;;;;;;;2048997;29;20611;-47
2024/03/15 03:54:40;;;;;;;6.80;3.53;;;;;;;;;;2049256;28;20478;-49
2024/03/15 03:55:42;;;;;;;6.80;3.75;;;;;;;;;;2049227;29;20086;-46
2024/03/15 03:56:43;;;;;;;5.57;3.70;;;;;;;;;;2048848;28;20154;-45
2024/03/15 03:57:45;;;;;;;5.82;3.65;;;;;;;;;;2047308;28;20035;-46
2024/03/15 03:58:46;;;;;;;6.60;3.88;;;;;;;;;;2062518;23;20035;-51
2024/03/15 03:59:49;;;;;;;4.78;3.15;;;;;;;;;;2062394;28;20754;-49
2024/03/15 04:00:50;;;;;;;6.13;3.60;;;;;;;;;;2062959;28;20038;-50
2024/03/15 04:01:51;;;;;;;5.70;3.50;;;;;;;;;;2061140;28;20026;-51
2024/03/15 04:02:53;;;;;;;6.13;3.42;;;;;;;;;;2062438;28;20030;-51
2024/03/15 04:03:54;;;;;;;8.43;3.30;;;;;;;;;;2062227;28;20034;-52
2024/03/15 04:04:55;;;;;;;6.35;3.67;;;;;;;;;;2059187;28;20023;-51
2024/03/15 04:05:58;;;;;;;5.85;3.17;;;;;;;;;;2058131;28;20458;-52
2024/03/15 04:06:59;;;;;;;5.25;3.35;;;;;;;;;;2064311;28;20092;-50
2024/03/15 04:08:02;;;;;;;6.68;3.25;;;;;;;;;;2063260;28;20065;-50
2024/03/15 04:09:04;;;;;;;8.45;3.63;;;;;;;;;;2060759;28;20018;-51
2024/03/15 04:10:05;;;;;;;8.60;3.80;;;;;;;;;;2060412;28;20026;-49
2024/03/15 04:11:06;;;;;;;6.35;3.47;;;;;;;;;;2061430;28;20089;-46
2024/03/15 04:12:07;;;;;;;6.82;3.63;;;;;;;;;;2062580;28;20468;-47
2024/03/15 04:13:09;;;;;;;5.13;3.65;;;;;;;;;;2062220;28;20027;-47
2024/03/15 04:14:13;;;;;;;7.75;4.13;;;;;;;;;;2060542;28;20113;-47
2024/03/15 04:15:14;;;;;;;7.97;3.60;;;;;;;;;;2059959;28;20030;-49
2024/03/15 04:16:16;;;;;;;6.10;3.53;;;;;;;;;;2060336;28;20023;-49
2024/03/15 04:17:18;;;;;;;7.20;3.85;;;;;;;;;;2061255;28;20022;-48
2024/03/15 04:18:21;;;;;;;6.57;3.83;;;;;;;;;;2061889;28;20466;-50
2024/03/15 04:19:24;;;;;;;6.68;3.22;;;;;;;;;;2060542;28;20109;-51
2024/03/15 04:20:26;;;;;;;6.82;3.53;;;;;;;;;;2059646;28;20030;-50
2024/03/15 04:21:28;;;;;;;9.45;3.78;;;;;;;;;;2060592;28;20421;-50
2024/03/15 04:22:29;;;;;;;8.45;3.95;;;;;;;;;;2060891;28;20173;-48
2024/03/15 04:23:30;;;;;;;8.52;3.60;;;;;;;;;;2059611;28;20038;-50
2024/03/15 04:24:35;;;;;;;8.90;4.20;;;;;;;;;;2059582;28;20023;-50
2024/03/15 04:25:36;;;;;;;6.75;3.67;;;;;;;;;;2062577;28;20026;-51
2024/03/15 04:26:38;;;;;;;5.30;3.38;;;;;;;;;;2058611;28;20414;-51
2024/03/15 04:27:39;;;;;;;8.23;4.10;;;;;;;;;;2057527;28;20027;-48
2024/03/15 04:28:41;;;;;;;6.03;3.42;;;;;;;;;;2058969;28;20030;-49
2024/03/15 04:29:43;;;;;;;5.45;3.33;;;;;;;;;;2065317;28;20041;-45
2024/03/15 04:30:45;;;;;;;7.07;3.70;;;;;;;;;;2061508;28;20031;-46
2024/03/15 04:31:48;;;;;;;6.97;4.10;;;;;;;;;;2061781;28;20096;-48
2024/03/15 04:32:50;;;;;;;8.85;3.85;;;;;;;;;;2063250;28;20034;-50
2024/03/15 04:33:52;;;;;;;7.68;4.00;;;;;;;;;;2060458;28;20019;-52
2024/03/15 04:34:55;;;;;;;6.85;4.03;;;;;;;;;;2059247;28;20038;-52
2024/03/15 04:35:58;;;;;;;7.72;3.70;;;;;;;;;;2059400;28;20015;-50
2024/03/15 04:36:59;;;;;;;8.15;4.40;;;;;;;;;;2063194;28;20089;-45
2024/03/15 04:38:03;;;;;;;6.80;3.58;;;;;;;;;;2063414;28;20038;-46
2024/03/15 04:39:07;;;;;;;7.07;3.95;;;;;;;;;;2058840;28;20022;-48
2024/03/15 04:40:10;;;;;;;8.18;4.00;;;;;;;;;;2058585;28;20109;-46
2024/03/15 04:41:11;;;;;;;8.05;4.03;;;;;;;;;;2061966;28;20689;-48
2024/03/15 04:42:14;;;;;;;11.02;4.25;;;;;;;;;;2059130;28;20100;-47
2024/03/15 04:43:17;;;;;;;7.43;4.20;;;;;;;;;;2064874;28;20030;-46
2024/03/15 04:44:18;;;;;;;5.43;3.55;;;;;;;;;;2057364;28;20081;-48
2024/03/15 04:45:22;;;;;;;8.10;4.03;;;;;;;;;;2060238;28;20039;-47
2024/03/15 04:46:23;;;;;;;7.20;4.20;;;;;;;;;;2058314;28;20031;-49
2024/03/15 04:47:26;;;;;;;9.65;3.83;;;;;;;;;;2062280;28;20113;-49
2024/03/15 04:48:28;;;;;;;6.95;3.60;;;;;;;;;;2063105;28;20034;-48
2024/03/15 04:49:30;;;;;;;5.57;3.58;;;;;;;;;;2061074;28;20118;-49
2024/03/15 04:50:31;;;;;;;6.47;3.70;;;;;;;;;;2058619;28;20601;-49
2024/03/15 04:51:32;;;;;;;8.68;4.07;;;;;;;;;;2060334;28;20034;-49
2024/03/15 04:52:34;;;;;;;8.20;3.72;;;;;;;;;;2060287;28;20026;-49
2024/03/15 04:53:35;;;;;;;6.28;3.55;;;;;;;;;;2059994;28;20509;-49
2024/03/15 04:54:38;;;;;;;7.32;3.80;;;;;;;;;;2060619;28;20042;-49
2024/03/15 04:55:39;;;;;;;8.43;3.80;;;;;;;;;;2057936;28;20011;-49
2024/03/15 04:56:41;;;;;;;6.28;3.97;;;;;;;;;;2057685;28;20045;-48
2024/03/15 04:57:42;;;;;;;5.93;3.80;;;;;;;;;;2057844;28;20022;-52
2024/03/15 04:58:43;;;;;;;7.50;3.92;;;;;;;;;;2061159;28;20038;-55
2024/03/15 04:59:45;;;;;;;5.75;3.30;;;;;;;;;;2062622;28;20035;-56
2024/03/15 05:00:46;;;;;;;7.00;3.92;;;;;;;;;;2057617;28;20524;-52
2024/03/15 05:01:48;;;;;;;5.80;3.90;;;;;;;;;;2060372;28;20014;-51
2024/03/15 05:02:49;;;;;;;6.63;3.90;;;;;;;;;;2064737;28;20085;-51
2024/03/15 05:03:50;;;;;;;6.65;4.00;;;;;;;;;;2060034;28;20031;-51
2024/03/15 05:04:52;;;;;;;6.85;3.67;;;;;;;;;;2057533;28;20030;-48
2024/03/15 05:05:54;;;;;;;6.65;3.70;;;;;;;;;;2061463;28;20042;-51
2024/03/15 05:06:56;;;;;;;9.23;3.67;;;;;;;;;;2059320;28;20098;-50
2024/03/15 05:07:58;;;;;;;7.25;3.65;;;;;;;;;;2060092;28;20498;-51
2024/03/15 05:08:59;;;;;;;9.68;4.05;;;;;;;;;;2059295;28;20030;-51
2024/03/15 05:10:00;;;;;;;6.78;3.75;;;;;;;;;;2059666;28;20026;-56
2024/03/15 05:11:02;;;;;;;6.95;4.50;;;;;;;;;;2060761;28;20448;-52
2024/03/15 05:12:03;;;;;;;5.38;3.45;;;;;;;;;;2058581;28;20035;-52
2024/03/15 05:13:06;;;;;;;8.23;3.90;;;;;;;;;;2062883;28;20128;-55
2024/03/15 05:14:08;;;;;;;7.18;4.10;;;;;;;;;;2058443;28;20382;-55
2024/03/15 05:15:10;;;;;;;6.82;3.75;;;;;;;;;;2060844;28;20038;-52
2024/03/15 05:16:14;;;;;;;8.32;3.78;;;;;;;;;;2062445;28;20030;-55
2024/03/15 05:17:15;;;;;;;8.73;3.95;;;;;;;;;;2056984;28;20038;-57
2024/03/15 05:18:16;;;;;;;7.28;4.15;;;;;;;;;;2060450;28;20033;-57
2024/03/15 05:19:18;;;;;;;6.93;4.28;;;;;;;;;;2058257;28;20023;-56
2024/03/15 05:20:19;;;;;;;6.15;3.60;;;;;;;;;;2058928;28;20473;-54
2024/03/15 05:21:20;;;;;;;6.28;3.53;;;;;;;;;;2057222;28;20027;-55
2024/03/15 05:22:24;;;;;;;6.93;4.15;;;;;;;;;;2056571;28;20034;-55
2024/03/15 05:23:25;;;;;;;9.45;4.07;;;;;;;;;;2058205;28;20034;-54
2024/03/15 05:24:27;;;;;;;10.10;4.18;;;;;;;;;;2058073;28;20059;-55
2024/03/15 05:25:28;;;;;;;5.82;4.10;;;;;;;;;;2059536;28;20109;-55
2024/03/15 05:26:32;;;;;;;9.23;5.28;;;;;;;;;;2061532;28;20033;-56
2024/03/15 05:27:33;;;;;;;9.43;5.45;;;;;;;;;;2060278;28;20024;-55
2024/03/15 05:28:35;;;;;;;10.40;4.97;;;;;;;;;;2059267;28;20053;-56
2024/03/15 05:29:38;;;;;;;8.05;3.80;;;;;;;;;;2057802;28;20020;-46
2024/03/15 05:30:39;;;;;;;8.73;4.43;;;;;;;;;;2056357;28;20525;-48
2024/03/15 05:31:41;;;;;;;6.97;4.70;;;;;;;;;;2058240;28;20026;-46
2024/03/15 05:32:42;;;;;;;8.73;4.18;;;;;;;;;;2064087;28;20083;-47
2024/03/15 05:33:44;;;;;;;10.65;4.43;;;;;;;;;;2059249;28;20013;-46
2024/03/15 05:34:46;;;;;;;10.32;4.75;;;;;;;;;;2062776;28;20050;-48
2024/03/15 05:35:48;;;;;;;7.70;4.22;;;;;;;;;;2061309;28;20115;-47
2024/03/15 05:36:49;;;;;;;8.00;4.25;;;;;;;;;;2057984;28;20069;-47
2024/03/15 05:37:51;;;;;;;10.93;4.95;;;;;;;;;;2061795;28;20031;-48
2024/03/15 05:38:53;;;;;;;5.97;4.60;;;;;;;;;;2063532;28;20082;-48
2024/03/15 05:39:54;;;;;;;9.35;4.88;;;;;;;;;;2058550;28;20085;-46
2024/03/15 05:40:55;;;;;;;8.35;4.93;;;;;;;;;;2056446;28;20532;-46
2024/03/15 05:41:57;;;;;;;8.77;4.80;;;;;;;;;;2061200;28;20237;-45
2024/03/15 05:42:58;;;;;;;9.38;4.72;;;;;;;;;;2057045;28;20022;-46
2024/03/15 05:43:59;;;;;;;7.63;4.18;;;;;;;;;;2059704;28;20018;-47
2024/03/15 05:45:01;;;;;;;7.10;4.47;;;;;;;;;;2060200;28;20557;-46
2024/03/15 05:46:03;;;;;;;9.27;5.00;;;;;;;;;;2060415;28;20050;-47
2024/03/15 05:47:05;;;;;;;6.78;4.35;;;;;;;;;;2057046;28;20033;-47
2024/03/15 05:48:06;;;;;;;6.97;4.18;;;;;;;;;;2063071;28;20173;-47
2024/03/15 05:49:08;;;;;;;7.53;4.50;;;;;;;;;;2060534;28;20031;-47
2024/03/15 05:50:09;;;;;;;8.52;4.53;;;;;;;;;;2062768;28;20263;-47
2024/03/15 05:51:11;;;;;;;7.78;4.45;;;;;;;;;;2062905;28;20498;-47
2024/03/15 05:52:14;;;;;;;7.97;4.82;;;;;;;;;;2063069;28;20568;-46
2024/03/15 05:53:15;;;;;;;9.60;4.22;;;;;;;;;;2059078;28;20085;-47
2024/03/15 05:54:17;;;;;;;6.22;4.43;;;;;;;;;;2061469;28;20026;-51
2024/03/15 05:55:18;;;;;;;7.88;4.47;;;;;;;;;;2059765;28;20030;-49
2024/03/15 05:56:19;;;;;;;9.60;4.75;;;;;;;;;;2057779;28;20023;-52
2024/03/15 05:57:21;;;;;;;7.88;4.85;;;;;;;;;;2060679;28;20366;-50
2024/03/15 05:58:22;;;;;;;7.47;4.20;;;;;;;;;;2059576;28;20126;-51
2024/03/15 05:59:23;;;;;;;9.05;4.63;;;;;;;;;;2056842;28;20026;-50
2024/03/15 06:00:26;;;;;;;7.03;4.72;;;;;;;;;;2058933;28;20015;-50
2024/03/15 06:01:28;;;;;;;6.90;4.20;;;;;;;;;;2059516;28;20370;-50
2024/03/15 06:02:29;;;;;;;9.95;4.82;;;;;;;;;;2058421;28;20431;-50
2024/03/15 06:03:31;;;;;;;6.22;3.58;;;;;;;;;;2057561;28;20035;-51
2024/03/15 06:04:35;;;;;;;7.80;4.70;;;;;;;;;;2059616;28;20027;-50
2024/03/15 06:05:37;;;;;;;8.38;4.22;;;;;;;;;;2062900;28;20019;-49
2024/03/15 06:06:40;;;;;;;8.25;4.30;;;;;;;;;;2060470;28;20461;-50
2024/03/15 06:07:42;;;;;;;7.03;4.30;;;;;;;;;;2058968;28;20057;-50
2024/03/15 06:08:43;;;;;;;9.32;4.45;;;;;;;;;;2062392;28;20114;-51